Time;durP1;ratioP1;P1;durP2;ratioP2;P2;SDS_P1;SDS_P2;PMS_P1;PMS_P2;Temp;Humidity;BMP_temperature;BMP_pressure;BME280_temperature;BME280_humidity;BME280_pressure;Samples;Min_cycle;Max_cycle;Signal;HPM_P1;HPM_P2
2021/12/09 00:00:18;;;;;;;0.20;0.20;;;;;;;;;;5025913;28;20208;-67
2021/12/09 00:02:45;;;;;;;0.30;0.30;;;;;;;;;;5025945;28;20256;-66
2021/12/09 00:05:13;;;;;;;0.20;0.20;;;;;;;;;;5025399;28;20271;-67
2021/12/09 00:07:41;;;;;;;0.90;0.90;;;;;;;;;;5025502;28;20205;-67
2021/12/09 00:10:10;;;;;;;0.30;0.30;;;;;;;;;;5025639;28;20201;-66
2021/12/09 00:12:37;;;;;;;0.30;0.30;;;;;;;;;;5025527;28;20268;-66
2021/12/09 00:15:03;;;;;;;0.27;0.27;;;;;;;;;;5025516;28;20412;-66
2021/12/09 00:17:30;;;;;;;2.97;2.77;;;;;;;;;;5025742;28;20205;-66
2021/12/09 00:19:56;;;;;;;0.20;0.20;;;;;;;;;;5025201;28;20217;-66
2021/12/09 00:22:22;;;;;;;0.20;0.20;;;;;;;;;;5025058;28;20201;-66
2021/12/09 00:24:48;;;;;;;15.73;8.33;;;;;;;;;;5025577;28;20218;-67
2021/12/09 00:27:16;;;;;;;0.20;0.20;;;;;;;;;;5025139;28;20244;-66
2021/12/09 00:29:42;;;;;;;0.20;0.20;;;;;;;;;;5025387;28;20515;-66
2021/12/09 00:32:08;;;;;;;0.20;0.20;;;;;;;;;;5025482;28;20261;-65
2021/12/09 00:34:37;;;;;;;0.67;0.67;;;;;;;;;;5025449;28;20213;-66
2021/12/09 00:37:16;;;;;;;1.10;1.10;;;;;;;;;;5025348;28;20535;-66
2021/12/09 00:39:43;;;;;;;0.30;0.30;;;;;;;;;;5025273;28;20196;-66
2021/12/09 00:42:10;;;;;;;0.20;0.20;;;;;;;;;;5025003;28;20239;-66
2021/12/09 00:44:38;;;;;;;0.97;0.97;;;;;;;;;;5024847;28;20205;-66
2021/12/09 00:47:04;;;;;;;1.50;1.40;;;;;;;;;;5024914;28;20255;-66
2021/12/09 00:49:31;;;;;;;0.27;0.27;;;;;;;;;;5025000;28;20201;-67
2021/12/09 00:51:57;;;;;;;0.23;0.23;;;;;;;;;;5024500;28;20205;-66
2021/12/09 00:54:23;;;;;;;0.30;0.30;;;;;;;;;;5024898;28;20209;-66
2021/12/09 00:56:50;;;;;;;0.23;0.23;;;;;;;;;;5024839;28;20224;-67
2021/12/09 00:59:19;;;;;;;2.93;2.47;;;;;;;;;;5024421;28;20296;-66
2021/12/09 01:01:47;;;;;;;0.20;0.20;;;;;;;;;;5024607;28;20240;-66
2021/12/09 01:04:14;;;;;;;1.57;1.57;;;;;;;;;;5024348;28;20289;-66
2021/12/09 01:06:40;;;;;;;0.80;0.80;;;;;;;;;;5024161;28;20219;-66
2021/12/09 01:09:06;;;;;;;1.40;0.83;;;;;;;;;;5024403;28;20276;-66
2021/12/09 01:11:32;;;;;;;0.40;0.40;;;;;;;;;;5024215;28;20221;-65
2021/12/09 01:13:59;;;;;;;0.23;0.23;;;;;;;;;;5024258;28;20202;-66
2021/12/09 01:16:25;;;;;;;0.40;0.40;;;;;;;;;;5024485;28;20263;-66
2021/12/09 01:18:53;;;;;;;0.30;0.30;;;;;;;;;;5024838;28;20284;-66
2021/12/09 01:21:19;;;;;;;0.30;0.30;;;;;;;;;;5024072;28;20213;-66
2021/12/09 01:23:45;;;;;;;1.07;1.07;;;;;;;;;;5024363;28;20303;-66
2021/12/09 01:26:11;;;;;;;1.33;1.33;;;;;;;;;;5023536;28;20209;-65
2021/12/09 01:28:44;;;;;;;0.40;0.40;;;;;;;;;;5023906;28;20205;-66
2021/12/09 01:31:11;;;;;;;2.77;2.00;;;;;;;;;;5024456;28;20190;-67
2021/12/09 01:33:38;;;;;;;0.20;0.20;;;;;;;;;;5024205;28;20281;-66
2021/12/09 01:36:06;;;;;;;1.57;0.73;;;;;;;;;;5024141;28;20267;-66
2021/12/09 01:38:33;;;;;;;1.37;1.37;;;;;;;;;;5023686;28;20533;-66
2021/12/09 01:40:59;;;;;;;1.63;1.63;;;;;;;;;;5023874;28;20209;-67
2021/12/09 01:43:25;;;;;;;0.30;0.30;;;;;;;;;;5024086;28;20212;-66
2021/12/09 01:46:01;;;;;;;0.30;0.30;;;;;;;;;;5023987;28;20255;-65
2021/12/09 01:48:27;;;;;;;0.20;0.20;;;;;;;;;;5023800;28;20193;-66
2021/12/09 01:50:53;;;;;;;0.73;0.73;;;;;;;;;;5023705;28;20255;-66
2021/12/09 01:53:21;;;;;;;0.30;0.30;;;;;;;;;;5024057;28;20206;-66
2021/12/09 01:55:47;;;;;;;0.30;0.30;;;;;;;;;;5023440;28;20268;-66
2021/12/09 01:58:13;;;;;;;4.83;4.43;;;;;;;;;;5023728;28;20201;-66
2021/12/09 02:00:39;;;;;;;0.20;0.20;;;;;;;;;;5023706;28;20501;-66
2021/12/09 02:03:06;;;;;;;5.83;5.53;;;;;;;;;;5023427;28;20281;-66
2021/12/09 02:05:33;;;;;;;2.50;1.47;;;;;;;;;;5022921;28;20227;-67
2021/12/09 02:08:00;;;;;;;0.23;0.23;;;;;;;;;;5023697;28;20209;-67
2021/12/09 02:10:28;;;;;;;0.20;0.20;;;;;;;;;;5023498;28;20389;-66
2021/12/09 02:12:54;;;;;;;0.30;0.30;;;;;;;;;;5023377;28;20205;-67
2021/12/09 02:15:22;;;;;;;1.50;1.50;;;;;;;;;;5023441;28;20272;-65
2021/12/09 02:17:49;;;;;;;0.20;0.20;;;;;;;;;;5023521;28;20377;-65
2021/12/09 02:20:15;;;;;;;1.03;1.03;;;;;;;;;;5023021;28;20217;-66
2021/12/09 02:22:46;;;;;;;6.20;5.80;;;;;;;;;;5022403;28;20209;-67
2021/12/09 02:25:13;;;;;;;0.30;0.30;;;;;;;;;;5023396;28;20248;-66
2021/12/09 02:27:39;;;;;;;0.40;0.40;;;;;;;;;;5023334;28;20206;-66
2021/12/09 02:30:06;;;;;;;0.30;0.30;;;;;;;;;;5022227;28;20202;-66
2021/12/09 02:32:32;;;;;;;0.73;0.73;;;;;;;;;;5022700;28;20208;-65
2021/12/09 02:34:58;;;;;;;0.30;0.30;;;;;;;;;;5023268;28;20205;-67
2021/12/09 02:37:24;;;;;;;0.30;0.30;;;;;;;;;;5022223;28;20251;-67
2021/12/09 02:39:52;;;;;;;0.30;0.30;;;;;;;;;;5022855;28;20205;-66
2021/12/09 02:42:18;;;;;;;0.20;0.20;;;;;;;;;;5022974;28;20331;-64
2021/12/09 02:44:45;;;;;;;1.23;1.23;;;;;;;;;;5022799;28;20370;-65
2021/12/09 02:47:12;;;;;;;1.03;1.03;;;;;;;;;;5023300;28;20201;-66
2021/12/09 02:49:38;;;;;;;6.50;6.13;;;;;;;;;;5023042;28;20543;-66
2021/12/09 02:52:05;;;;;;;0.20;0.20;;;;;;;;;;5022819;28;20559;-66
2021/12/09 02:54:31;;;;;;;1.03;1.03;;;;;;;;;;5022915;28;20284;-66
2021/12/09 02:57:00;;;;;;;3.33;3.23;;;;;;;;;;5022433;28;20263;-66
2021/12/09 02:59:27;;;;;;;0.40;0.40;;;;;;;;;;5022696;28;20206;-66
2021/12/09 03:01:57;;;;;;;0.30;0.30;;;;;;;;;;5012365;28;20221;-66
2021/12/09 03:04:24;;;;;;;0.20;0.20;;;;;;;;;;5015748;28;20198;-67
2021/12/09 03:06:53;;;;;;;0.30;0.30;;;;;;;;;;5012707;28;20253;-66
2021/12/09 03:09:20;;;;;;;0.37;0.37;;;;;;;;;;5016160;28;20243;-66
2021/12/09 03:11:53;;;;;;;0.40;0.40;;;;;;;;;;5016260;28;20263;-66
2021/12/09 03:14:21;;;;;;;3.43;3.33;;;;;;;;;;5022559;28;20461;-66
2021/12/09 03:16:47;;;;;;;0.20;0.20;;;;;;;;;;5022355;28;20460;-66
2021/12/09 03:19:13;;;;;;;0.63;0.63;;;;;;;;;;5022365;28;20221;-66
2021/12/09 03:21:40;;;;;;;0.73;0.73;;;;;;;;;;5022493;28;20211;-66
2021/12/09 03:24:08;;;;;;;2.57;2.43;;;;;;;;;;5022531;28;20301;-66
2021/12/09 03:26:36;;;;;;;0.20;0.20;;;;;;;;;;5022144;28;20197;-67
2021/12/09 03:29:05;;;;;;;0.30;0.30;;;;;;;;;;5022340;28;20224;-66
2021/12/09 03:31:32;;;;;;;0.20;0.20;;;;;;;;;;5022028;28;20244;-66
2021/12/09 03:33:59;;;;;;;0.87;0.87;;;;;;;;;;5022370;28;20273;-65
2021/12/09 03:36:28;;;;;;;0.30;0.30;;;;;;;;;;5022368;28;20279;-66
2021/12/09 03:38:54;;;;;;;1.43;1.43;;;;;;;;;;5022460;28;20208;-66
2021/12/09 03:41:20;;;;;;;0.30;0.30;;;;;;;;;;5021941;28;20201;-66
2021/12/09 03:43:47;;;;;;;2.87;2.77;;;;;;;;;;5022048;28;20205;-66
2021/12/09 03:46:13;;;;;;;1.67;1.67;;;;;;;;;;5022012;28;20239;-66
2021/12/09 03:48:40;;;;;;;0.20;0.20;;;;;;;;;;5019124;28;20202;-66
2021/12/09 03:51:07;;;;;;;0.20;0.20;;;;;;;;;;5012676;28;20201;-66
2021/12/09 03:53:33;;;;;;;0.50;0.50;;;;;;;;;;5025784;28;20256;-66
2021/12/09 03:55:59;;;;;;;0.20;0.20;;;;;;;;;;5025909;28;20240;-66
2021/12/09 03:58:25;;;;;;;0.30;0.30;;;;;;;;;;5026121;28;20228;-65
2021/12/09 04:00:52;;;;;;;1.80;0.93;;;;;;;;;;5025858;28;20466;-66
2021/12/09 04:03:18;;;;;;;0.20;0.20;;;;;;;;;;5025704;28;20251;-66
2021/12/09 04:05:46;;;;;;;0.20;0.20;;;;;;;;;;5025832;28;20260;-67
2021/12/09 04:08:12;;;;;;;0.20;0.20;;;;;;;;;;5025968;28;20205;-66
2021/12/09 04:10:39;;;;;;;1.10;1.10;;;;;;;;;;5025651;28;20209;-65
2021/12/09 04:13:05;;;;;;;0.47;0.47;;;;;;;;;;5025698;28;20288;-67
2021/12/09 04:15:31;;;;;;;0.20;0.20;;;;;;;;;;5025498;28;20486;-66
2021/12/09 04:17:58;;;;;;;0.60;0.60;;;;;;;;;;5025531;28;20447;-65
2021/12/09 04:20:24;;;;;;;1.13;1.13;;;;;;;;;;5025223;28;20220;-66
2021/12/09 04:22:52;;;;;;;0.37;0.37;;;;;;;;;;5025415;28;20201;-66
2021/12/09 04:25:19;;;;;;;1.07;1.07;;;;;;;;;;5025601;28;20504;-66
2021/12/09 04:27:46;;;;;;;0.40;0.40;;;;;;;;;;5025133;28;20204;-66
2021/12/09 04:30:13;;;;;;;0.20;0.20;;;;;;;;;;5025427;28;20205;-66
2021/12/09 04:32:39;;;;;;;0.57;0.57;;;;;;;;;;5024935;28;20271;-68
2021/12/09 04:35:06;;;;;;;1.13;1.13;;;;;;;;;;5025288;28;20251;-68
2021/12/09 04:37:32;;;;;;;0.67;0.67;;;;;;;;;;5025175;28;20352;-68
2021/12/09 04:40:00;;;;;;;0.30;0.30;;;;;;;;;;5025283;28;20209;-69
2021/12/09 04:42:26;;;;;;;0.20;0.20;;;;;;;;;;5025265;28;20205;-68
2021/12/09 04:44:53;;;;;;;5.37;4.93;;;;;;;;;;5025078;28;20214;-68
2021/12/09 04:47:19;;;;;;;0.63;0.63;;;;;;;;;;5024639;28;20252;-68
2021/12/09 04:49:45;;;;;;;0.20;0.20;;;;;;;;;;5024993;28;20205;-69
2021/12/09 04:52:11;;;;;;;1.03;0.97;;;;;;;;;;5024838;28;20205;-68
2021/12/09 04:54:41;;;;;;;3.83;3.63;;;;;;;;;;5024647;28;20240;-68
2021/12/09 04:57:09;;;;;;;1.03;1.03;;;;;;;;;;5024511;28;20217;-69
2021/12/09 04:59:35;;;;;;;2.00;1.67;;;;;;;;;;5023947;28;20508;-69
2021/12/09 05:02:02;;;;;;;4.13;2.40;;;;;;;;;;5024441;28;20205;-68
2021/12/09 05:04:28;;;;;;;0.40;0.40;;;;;;;;;;5024342;28;20284;-69
2021/12/09 05:06:54;;;;;;;16.73;4.10;;;;;;;;;;5024403;28;20499;-68
2021/12/09 05:09:21;;;;;;;0.87;0.87;;;;;;;;;;5024221;28;20224;-69
2021/12/09 05:11:50;;;;;;;4.53;4.27;;;;;;;;;;5024482;28;20204;-69
2021/12/09 05:14:19;;;;;;;0.90;0.90;;;;;;;;;;5024539;28;20201;-69
2021/12/09 05:16:46;;;;;;;9.57;8.60;;;;;;;;;;5024451;28;20272;-68
2021/12/09 05:19:13;;;;;;;3.80;2.73;;;;;;;;;;5024142;28;20213;-69
2021/12/09 05:21:39;;;;;;;13.67;4.53;;;;;;;;;;5024534;28;20197;-69
2021/12/09 05:24:06;;;;;;;0.40;0.40;;;;;;;;;;5024247;28;20254;-69
2021/12/09 05:26:39;;;;;;;0.93;0.93;;;;;;;;;;5024156;28;20586;-68
2021/12/09 05:29:05;;;;;;;0.30;0.30;;;;;;;;;;5024111;28;20224;-69
2021/12/09 05:34:16;;;;;;;0.20;0.20;;;;;;;;;;5023959;28;20228;-69
2021/12/09 05:36:43;;;;;;;0.40;0.40;;;;;;;;;;5023792;28;20225;-68
2021/12/09 05:39:10;;;;;;;0.23;0.23;;;;;;;;;;5023916;28;20228;-68
2021/12/09 05:41:37;;;;;;;0.30;0.30;;;;;;;;;;5023812;28;20201;-68
2021/12/09 05:44:04;;;;;;;0.30;0.30;;;;;;;;;;5023826;28;20262;-67
2021/12/09 05:46:31;;;;;;;0.53;0.53;;;;;;;;;;5024116;28;20267;-67
2021/12/09 05:48:59;;;;;;;2.00;1.87;;;;;;;;;;5023725;28;20259;-68
2021/12/09 05:51:25;;;;;;;1.80;1.80;;;;;;;;;;5023784;28;20247;-68
2021/12/09 05:53:51;;;;;;;0.20;0.20;;;;;;;;;;5023535;28;20205;-68
2021/12/09 05:56:18;;;;;;;0.23;0.23;;;;;;;;;;5023275;28;20209;-68
2021/12/09 05:58:44;;;;;;;1.03;1.03;;;;;;;;;;5023748;28;20201;-69
2021/12/09 06:01:10;;;;;;;0.20;0.20;;;;;;;;;;5023906;28;20499;-68
2021/12/09 06:03:37;;;;;;;0.20;0.20;;;;;;;;;;5023368;28;20212;-68
2021/12/09 06:06:05;;;;;;;8.70;5.30;;;;;;;;;;5023134;28;20225;-68
2021/12/09 06:08:32;;;;;;;2.23;2.20;;;;;;;;;;5023684;28;20507;-69
2021/12/09 06:11:00;;;;;;;1.70;1.70;;;;;;;;;;5023261;28;20209;-67
2021/12/09 06:13:30;;;;;;;2.47;2.33;;;;;;;;;;5023360;28;20458;-68
2021/12/09 06:15:56;;;;;;;0.33;0.33;;;;;;;;;;5023071;28;20240;-68
2021/12/09 06:18:22;;;;;;;0.20;0.20;;;;;;;;;;5023502;28;20358;-68
2021/12/09 06:20:48;;;;;;;16.57;1.73;;;;;;;;;;5023057;28;20223;-68
2021/12/09 06:23:16;;;;;;;2.43;2.23;;;;;;;;;;5023415;28;20205;-69
2021/12/09 06:25:42;;;;;;;0.77;0.77;;;;;;;;;;5023337;28;20469;-68
2021/12/09 06:28:09;;;;;;;0.20;0.20;;;;;;;;;;5023414;28;20240;-69
2021/12/09 06:30:35;;;;;;;0.20;0.20;;;;;;;;;;5023095;28;20227;-67
2021/12/09 06:33:02;;;;;;;0.20;0.20;;;;;;;;;;5023189;28;20243;-68
2021/12/09 06:35:28;;;;;;;0.40;0.40;;;;;;;;;;5022980;28;20232;-68
2021/12/09 06:37:54;;;;;;;0.20;0.20;;;;;;;;;;5023130;28;20439;-68
2021/12/09 06:40:23;;;;;;;0.20;0.20;;;;;;;;;;5023289;28;20205;-68
2021/12/09 06:42:50;;;;;;;0.30;0.30;;;;;;;;;;5022787;28;20207;-68
2021/12/09 06:45:17;;;;;;;0.20;0.20;;;;;;;;;;5022786;28;20493;-68
2021/12/09 06:47:44;;;;;;;0.23;0.23;;;;;;;;;;5023030;28;20203;-68
2021/12/09 06:50:11;;;;;;;0.30;0.30;;;;;;;;;;5023062;28;20244;-68
2021/12/09 06:52:37;;;;;;;0.63;0.63;;;;;;;;;;5023072;28;20205;-68
2021/12/09 06:55:04;;;;;;;0.97;0.97;;;;;;;;;;5022707;28;20212;-67
2021/12/09 06:57:32;;;;;;;0.20;0.20;;;;;;;;;;5023011;28;20243;-68
2021/12/09 06:59:58;;;;;;;0.20;0.20;;;;;;;;;;5022919;28;20392;-69
2021/12/09 07:02:25;;;;;;;0.20;0.20;;;;;;;;;;5017527;28;20232;-68
2021/12/09 07:04:51;;;;;;;0.20;0.20;;;;;;;;;;5022942;28;20209;-68
2021/12/09 07:07:17;;;;;;;0.20;0.20;;;;;;;;;;5017870;28;20450;-68
2021/12/09 07:09:44;;;;;;;0.20;0.20;;;;;;;;;;5022308;28;20509;-68
2021/12/09 07:12:10;;;;;;;0.30;0.30;;;;;;;;;;5017847;28;20201;-69
2021/12/09 07:14:39;;;;;;;0.20;0.20;;;;;;;;;;5023101;28;20217;-70
2021/12/09 07:17:05;;;;;;;0.20;0.20;;;;;;;;;;5022800;28;20221;-69
2021/12/09 07:19:41;;;;;;;0.20;0.20;;;;;;;;;;5020500;28;20292;-70
2021/12/09 07:22:07;;;;;;;0.20;0.20;;;;;;;;;;5022708;28;20205;-70
2021/12/09 07:24:33;;;;;;;0.20;0.20;;;;;;;;;;5014539;28;20213;-69
2021/12/09 07:27:00;;;;;;;0.27;0.27;;;;;;;;;;5018458;28;20213;-70
2021/12/09 07:29:26;;;;;;;0.20;0.20;;;;;;;;;;5017643;28;20232;-69
2021/12/09 07:31:54;;;;;;;1.60;1.60;;;;;;;;;;5026552;28;20551;-69
2021/12/09 07:34:21;;;;;;;0.30;0.30;;;;;;;;;;5026304;28;20209;-69
2021/12/09 07:36:47;;;;;;;0.30;0.30;;;;;;;;;;5026012;28;20240;-70
2021/12/09 07:39:14;;;;;;;2.37;2.20;;;;;;;;;;5026501;28;20271;-70
2021/12/09 07:41:40;;;;;;;0.20;0.20;;;;;;;;;;5026488;28;20201;-68
2021/12/09 07:44:07;;;;;;;0.67;0.67;;;;;;;;;;5026527;28;20271;-69
2021/12/09 07:46:34;;;;;;;0.20;0.20;;;;;;;;;;5026074;28;20265;-69
2021/12/09 07:49:01;;;;;;;0.30;0.30;;;;;;;;;;5026354;28;20197;-69
2021/12/09 07:51:27;;;;;;;0.20;0.20;;;;;;;;;;5023691;28;20255;-69
2021/12/09 07:53:54;;;;;;;0.20;0.20;;;;;;;;;;5006657;28;20497;-69
2021/12/09 07:56:20;;;;;;;0.30;0.30;;;;;;;;;;5011934;28;20200;-70
2021/12/09 07:58:46;;;;;;;0.20;0.20;;;;;;;;;;5026276;28;20240;-70
2021/12/09 08:01:12;;;;;;;0.20;0.20;;;;;;;;;;5026054;28;20201;-69
2021/12/09 08:03:39;;;;;;;1.17;1.17;;;;;;;;;;5026118;28;20208;-70
2021/12/09 08:06:07;;;;;;;1.90;1.80;;;;;;;;;;5025547;28;20222;-70
2021/12/09 08:08:33;;;;;;;0.30;0.30;;;;;;;;;;5026027;28;20208;-71
2021/12/09 08:11:00;;;;;;;0.20;0.20;;;;;;;;;;5025630;28;20281;-70
2021/12/09 08:13:27;;;;;;;1.27;1.27;;;;;;;;;;5025913;28;20504;-70
2021/12/09 08:15:54;;;;;;;0.30;0.30;;;;;;;;;;5025530;28;20217;-69
2021/12/09 08:18:29;;;;;;;0.30;0.30;;;;;;;;;;5022857;28;20292;-69
2021/12/09 08:20:56;;;;;;;1.40;1.40;;;;;;;;;;5019712;28;20216;-70
2021/12/09 08:23:25;;;;;;;0.50;0.50;;;;;;;;;;5025340;28;20547;-70
2021/12/09 08:25:52;;;;;;;0.30;0.30;;;;;;;;;;5019312;28;20497;-70
2021/12/09 08:28:18;;;;;;;0.30;0.30;;;;;;;;;;5015153;28;20205;-70
2021/12/09 08:30:46;;;;;;;0.20;0.20;;;;;;;;;;5018473;28;20280;-70
2021/12/09 08:33:12;;;;;;;0.30;0.30;;;;;;;;;;5014515;28;20427;-70
2021/12/09 08:35:38;;;;;;;0.27;0.27;;;;;;;;;;5018475;28;20498;-69
2021/12/09 08:38:05;;;;;;;0.20;0.20;;;;;;;;;;5025459;28;20259;-69
2021/12/09 08:40:34;;;;;;;0.50;0.50;;;;;;;;;;5019314;28;20201;-68
2021/12/09 08:43:00;;;;;;;0.20;0.20;;;;;;;;;;5023899;28;20547;-68
2021/12/09 08:45:26;;;;;;;0.20;0.20;;;;;;;;;;5025194;28;20209;-68
2021/12/09 08:47:53;;;;;;;0.20;0.20;;;;;;;;;;5025133;28;20202;-70
2021/12/09 08:50:21;;;;;;;0.27;0.27;;;;;;;;;;5025419;28;20212;-70
2021/12/09 08:52:47;;;;;;;0.30;0.30;;;;;;;;;;5025092;28;20207;-69
2021/12/09 08:55:15;;;;;;;0.20;0.20;;;;;;;;;;5019316;28;20209;-70
2021/12/09 08:57:42;;;;;;;0.20;0.20;;;;;;;;;;5011724;28;20279;-71
2021/12/09 09:00:10;;;;;;;0.20;0.20;;;;;;;;;;5024905;28;20208;-70
2021/12/09 09:02:36;;;;;;;0.20;0.20;;;;;;;;;;5024878;28;20243;-71
2021/12/09 09:05:04;;;;;;;0.20;0.20;;;;;;;;;;5024918;28;20216;-71
2021/12/09 09:07:30;;;;;;;0.30;0.30;;;;;;;;;;5024809;28;20198;-70
2021/12/09 09:09:56;;;;;;;0.20;0.20;;;;;;;;;;5024534;28;20217;-70
2021/12/09 09:12:23;;;;;;;0.30;0.30;;;;;;;;;;5024333;28;20212;-71
2021/12/09 09:14:50;;;;;;;0.20;0.20;;;;;;;;;;5024631;28;20208;-72
2021/12/09 09:17:17;;;;;;;3.10;3.00;;;;;;;;;;5024768;28;20205;-70
2021/12/09 09:19:43;;;;;;;0.20;0.20;;;;;;;;;;5019381;28;20255;-70
2021/12/09 09:22:09;;;;;;;0.23;0.23;;;;;;;;;;5021437;28;20217;-70
2021/12/09 09:24:36;;;;;;;0.57;0.57;;;;;;;;;;5011760;28;20239;-70
2021/12/09 09:27:02;;;;;;;3.13;3.03;;;;;;;;;;5020820;28;20206;-70
2021/12/09 09:29:32;;;;;;;6.43;2.33;;;;;;;;;;5024368;28;20225;-71
2021/12/09 09:31:59;;;;;;;0.20;0.20;;;;;;;;;;5023684;28;20224;-71
2021/12/09 09:34:26;;;;;;;1.23;1.23;;;;;;;;;;5024110;28;20209;-71
2021/12/09 09:36:53;;;;;;;0.20;0.20;;;;;;;;;;5021630;28;20229;-70
2021/12/09 09:39:21;;;;;;;0.40;0.40;;;;;;;;;;5023463;28;20293;-71
2021/12/09 09:41:56;;;;;;;0.20;0.20;;;;;;;;;;5021167;28;20251;-70
2021/12/09 09:44:28;;;;;;;0.27;0.27;;;;;;;;;;5024237;28;20215;-72
2021/12/09 09:46:57;;;;;;;0.30;0.30;;;;;;;;;;5023715;28;20256;-71
2021/12/09 09:49:24;;;;;;;0.20;0.20;;;;;;;;;;5024043;28;20504;-71
2021/12/09 09:51:51;;;;;;;2.33;2.23;;;;;;;;;;5024089;28;20527;-72
2021/12/09 09:54:18;;;;;;;0.27;0.27;;;;;;;;;;5023490;28;20340;-70
2021/12/09 09:56:44;;;;;;;1.13;1.13;;;;;;;;;;5015167;28;20213;-71
2021/12/09 09:59:17;;;;;;;0.20;0.20;;;;;;;;;;5015940;28;20232;-71
2021/12/09 10:01:44;;;;;;;0.20;0.20;;;;;;;;;;5020205;28;20243;-71
2021/12/09 10:04:13;;;;;;;4.33;4.13;;;;;;;;;;5007365;28;20233;-69
2021/12/09 10:06:42;;;;;;;0.20;0.20;;;;;;;;;;5020935;28;20272;-70
2021/12/09 10:09:09;;;;;;;0.27;0.27;;;;;;;;;;5011702;28;20268;-71
2021/12/09 10:11:35;;;;;;;0.30;0.30;;;;;;;;;;5014563;28;20278;-71
2021/12/09 10:14:08;;;;;;;1.30;1.30;;;;;;;;;;5003688;28;20202;-71
2021/12/09 10:16:35;;;;;;;0.30;0.30;;;;;;;;;;5022153;28;20421;-71
2021/12/09 10:19:02;;;;;;;1.20;1.20;;;;;;;;;;5023311;28;20228;-71
2021/12/09 10:21:30;;;;;;;0.20;0.20;;;;;;;;;;5023084;28;20201;-71
2021/12/09 10:24:00;;;;;;;3.80;3.50;;;;;;;;;;5012716;28;20505;-71
2021/12/09 10:26:27;;;;;;;0.20;0.20;;;;;;;;;;5015513;28;20205;-70
2021/12/09 10:29:02;;;;;;;0.30;0.30;;;;;;;;;;5006114;28;20213;-71
2021/12/09 10:31:30;;;;;;;0.20;0.20;;;;;;;;;;5021023;28;20481;-70
2021/12/09 10:34:12;;;;;;;1.63;1.53;;;;;;;;;;5023278;28;20202;-71
2021/12/09 10:36:49;;;;;;;0.60;0.60;;;;;;;;;;5023692;28;20193;-71
2021/12/09 10:39:21;;;;;;;0.93;0.93;;;;;;;;;;5022571;28;20236;-72
2021/12/09 10:41:47;;;;;;;0.30;0.30;;;;;;;;;;5022940;28;20197;-71
2021/12/09 10:44:14;;;;;;;0.20;0.20;;;;;;;;;;5023255;28;20415;-72
2021/12/09 10:46:50;;;;;;;0.23;0.23;;;;;;;;;;5022928;28;20517;-71
2021/12/09 10:49:17;;;;;;;0.30;0.30;;;;;;;;;;5023059;28;20473;-70
2021/12/09 10:51:55;;;;;;;3.60;2.47;;;;;;;;;;5023193;28;20508;-73
2021/12/09 10:54:32;;;;;;;1.93;1.70;;;;;;;;;;5022972;28;20387;-70
2021/12/09 10:57:18;;;;;;;0.20;0.20;;;;;;;;;;5022926;28;20193;-71
2021/12/09 10:59:46;;;;;;;0.60;0.60;;;;;;;;;;5022218;28;20217;-71
2021/12/09 11:02:13;;;;;;;1.23;1.23;;;;;;;;;;5022781;28;20504;-72
2021/12/09 11:04:40;;;;;;;6.43;3.70;;;;;;;;;;5022904;28;20227;-70
2021/12/09 11:07:19;;;;;;;0.20;0.20;;;;;;;;;;5022460;28;20228;-71
2021/12/09 11:09:46;;;;;;;0.20;0.20;;;;;;;;;;5022449;28;20196;-69
2021/12/09 11:12:26;;;;;;;0.20;0.20;;;;;;;;;;5022619;28;20201;-69
2021/12/09 11:15:00;;;;;;;0.30;0.30;;;;;;;;;;5022786;28;20389;-68
2021/12/09 11:17:33;;;;;;;0.27;0.27;;;;;;;;;;5022741;28;20193;-69
2021/12/09 11:19:59;;;;;;;19.10;5.50;;;;;;;;;;5022124;28;20292;-70
2021/12/09 11:22:31;;;;;;;0.47;0.47;;;;;;;;;;5022384;28;20198;-69
2021/12/09 11:25:02;;;;;;;0.27;0.27;;;;;;;;;;5018607;28;20217;-69
2021/12/09 11:27:30;;;;;;;0.60;0.60;;;;;;;;;;5011616;28;20219;-71
2021/12/09 11:30:08;;;;;;;0.27;0.27;;;;;;;;;;5005335;28;20317;-71
2021/12/09 11:32:41;;;;;;;1.43;1.43;;;;;;;;;;5016266;28;20198;-69
2021/12/09 11:35:13;;;;;;;0.30;0.30;;;;;;;;;;5019199;28;20244;-69
2021/12/09 11:37:45;;;;;;;10.30;7.43;;;;;;;;;;5008168;28;20269;-70
2021/12/09 11:40:15;;;;;;;0.87;0.87;;;;;;;;;;5008123;28;20493;-70
2021/12/09 11:42:46;;;;;;;0.20;0.20;;;;;;;;;;5012723;28;20511;-70
2021/12/09 11:45:16;;;;;;;0.30;0.30;;;;;;;;;;5014040;28;20202;-71
2021/12/09 11:47:43;;;;;;;2.07;1.90;;;;;;;;;;5013007;28;20210;-69
2021/12/09 11:50:12;;;;;;;0.20;0.20;;;;;;;;;;5008976;28;20224;-70
2021/12/09 11:52:38;;;;;;;0.20;0.20;;;;;;;;;;5007585;28;20210;-70
2021/12/09 11:55:06;;;;;;;0.20;0.20;;;;;;;;;;5017587;28;20389;-69
2021/12/09 11:57:37;;;;;;;0.20;0.20;;;;;;;;;;5022015;28;20208;-69
2021/12/09 12:11:36;;;;;;;2.67;2.57;;;;;;;;;;5025674;28;20389;-69
2021/12/09 12:14:08;;;;;;;0.20;0.20;;;;;;;;;;5025595;28;20193;-68
2021/12/09 12:16:51;;;;;;;1.07;1.07;;;;;;;;;;5025506;28;20200;-68
2021/12/09 12:19:29;;;;;;;5.17;4.90;;;;;;;;;;5005925;28;20408;-69
2021/12/09 12:22:25;;;;;;;0.30;0.30;;;;;;;;;;5007957;28;20360;-69
2021/12/09 12:33:25;;;;;;;0.20;0.20;;;;;;;;;;4984409;28;20262;-69
2021/12/09 12:36:04;;;;;;;0.73;0.73;;;;;;;;;;4984345;28;20202;-70
2021/12/09 12:38:52;;;;;;;0.80;0.80;;;;;;;;;;4989143;28;20342;-69
2021/12/09 12:41:20;;;;;;;0.27;0.27;;;;;;;;;;5005539;28;20202;-69
2021/12/09 12:43:54;;;;;;;0.30;0.30;;;;;;;;;;5013860;28;20209;-68
2021/12/09 12:46:39;;;;;;;11.60;10.83;;;;;;;;;;5024761;28;20201;-69
2021/12/09 12:49:15;;;;;;;0.20;0.20;;;;;;;;;;5025060;28;20193;-69
2021/12/09 12:51:51;;;;;;;1.90;1.80;;;;;;;;;;5025241;28;20260;-69
2021/12/09 12:54:32;;;;;;;1.80;1.80;;;;;;;;;;5025096;28;20388;-69
2021/12/09 12:57:01;;;;;;;0.20;0.20;;;;;;;;;;5025168;28;20384;-69
2021/12/09 12:59:32;;;;;;;0.20;0.20;;;;;;;;;;5024929;28;20259;-68
2021/12/09 13:05:17;;;;;;;0.20;0.20;;;;;;;;;;5004048;28;20239;-69
2021/12/09 13:08:03;;;;;;;0.20;0.20;;;;;;;;;;5024771;28;20206;-69
2021/12/09 13:10:44;;;;;;;0.20;0.20;;;;;;;;;;5024611;28;20208;-70
2021/12/09 13:13:19;;;;;;;0.30;0.30;;;;;;;;;;5024433;28;20198;-68
2021/12/09 13:16:02;;;;;;;0.20;0.20;;;;;;;;;;5024813;28;20380;-69
2021/12/09 13:18:45;;;;;;;0.97;0.97;;;;;;;;;;5024569;28;20208;-69
2021/12/09 13:21:30;;;;;;;0.97;0.97;;;;;;;;;;5023574;28;20240;-70
2021/12/09 13:24:11;;;;;;;1.40;1.40;;;;;;;;;;5024290;28;20236;-68
2021/12/09 13:26:59;;;;;;;0.20;0.20;;;;;;;;;;5023829;28;20207;-68
2021/12/09 13:29:35;;;;;;;0.20;0.20;;;;;;;;;;5004463;28;20208;-69
2021/12/09 13:32:16;;;;;;;2.73;2.63;;;;;;;;;;5008514;28;20212;-69
2021/12/09 13:34:50;;;;;;;0.20;0.20;;;;;;;;;;5016535;28;20244;-69
2021/12/09 13:37:53;;;;;;;1.87;1.87;;;;;;;;;;5024117;28;20216;-68
2021/12/09 13:40:28;;;;;;;0.20;0.20;;;;;;;;;;5023852;28;20471;-68
2021/12/09 13:45:57;;;;;;;0.20;0.20;;;;;;;;;;5023783;28;20368;-69
2021/12/09 13:48:29;;;;;;;0.20;0.20;;;;;;;;;;5023790;28;20205;-69
2021/12/09 13:51:09;;;;;;;0.20;0.20;;;;;;;;;;5023960;28;20198;-68
2021/12/09 13:56:19;;;;;;;0.20;0.20;;;;;;;;;;5023883;28;20323;-67
2021/12/09 13:58:48;;;;;;;1.00;1.00;;;;;;;;;;5019098;28;20259;-69
2021/12/09 14:01:14;;;;;;;0.20;0.20;;;;;;;;;;5023138;28;20209;-68
2021/12/09 14:03:41;;;;;;;1.03;1.03;;;;;;;;;;5004986;28;20209;-68
2021/12/09 14:06:11;;;;;;;2.87;2.77;;;;;;;;;;5014210;28;20225;-69
2021/12/09 14:08:42;;;;;;;0.30;0.30;;;;;;;;;;5023800;28;20194;-69
2021/12/09 14:11:12;;;;;;;0.47;0.47;;;;;;;;;;5023651;28;20200;-69
2021/12/09 14:13:41;;;;;;;0.87;0.87;;;;;;;;;;5023614;28;20194;-68
2021/12/09 14:16:23;;;;;;;0.20;0.20;;;;;;;;;;5023335;28;20244;-69
2021/12/09 14:21:33;;;;;;;1.20;1.20;;;;;;;;;;5022799;28;20201;-70
2021/12/09 14:24:04;;;;;;;0.73;0.73;;;;;;;;;;5023491;28;20213;-69
2021/12/09 14:26:30;;;;;;;0.20;0.20;;;;;;;;;;5023213;28;20236;-71
2021/12/09 14:28:58;;;;;;;0.20;0.20;;;;;;;;;;5023288;28;20377;-70
2021/12/09 14:31:26;;;;;;;0.30;0.30;;;;;;;;;;5022885;28;20248;-69
2021/12/09 14:33:52;;;;;;;0.83;0.83;;;;;;;;;;5023500;28;20205;-76
2021/12/09 14:36:19;;;;;;;0.40;0.40;;;;;;;;;;5014380;28;20231;-74
2021/12/09 14:38:45;;;;;;;0.87;0.87;;;;;;;;;;5018449;28;20205;-76
2021/12/09 14:41:17;;;;;;;0.20;0.20;;;;;;;;;;5023057;28;20351;-76
2021/12/09 14:43:45;;;;;;;0.30;0.30;;;;;;;;;;5022967;28;20198;-75
2021/12/09 14:46:18;;;;;;;0.20;0.20;;;;;;;;;;5023179;28;20205;-75
2021/12/09 14:48:46;;;;;;;0.30;0.30;;;;;;;;;;5023188;28;20501;-76
2021/12/09 14:51:14;;;;;;;0.20;0.20;;;;;;;;;;5023169;28;20227;-76
2021/12/09 14:53:42;;;;;;;9.73;7.13;;;;;;;;;;5022795;28;20224;-76
2021/12/09 14:56:20;;;;;;;0.63;0.63;;;;;;;;;;5023028;28;20391;-76
2021/12/09 14:58:46;;;;;;;1.50;1.50;;;;;;;;;;5022824;28;20200;-77
2021/12/09 15:01:17;;;;;;;1.10;1.10;;;;;;;;;;5023019;28;20232;-74
2021/12/09 15:03:54;;;;;;;0.37;0.37;;;;;;;;;;5022886;28;20194;-75
2021/12/09 15:06:25;;;;;;;4.10;3.90;;;;;;;;;;5022546;28;20220;-77
2021/12/09 15:08:55;;;;;;;2.20;2.13;;;;;;;;;;5023135;28;20194;-74
2021/12/09 15:11:21;;;;;;;0.30;0.30;;;;;;;;;;5022395;28;20219;-76
2021/12/09 15:13:49;;;;;;;0.77;0.77;;;;;;;;;;5022942;28;20359;-76
2021/12/09 15:16:17;;;;;;;0.30;0.30;;;;;;;;;;5023033;28;20202;-74
2021/12/09 15:18:45;;;;;;;1.03;1.03;;;;;;;;;;5023154;28;20392;-76
2021/12/09 15:21:17;;;;;;;0.20;0.20;;;;;;;;;;5005852;28;20219;-75
2021/12/09 15:23:45;;;;;;;0.20;0.20;;;;;;;;;;5020842;28;20208;-75
2021/12/09 15:26:16;;;;;;;0.83;0.83;;;;;;;;;;5022687;28;20213;-76